createdAt,value
2018-08-10T00:01:16.329Z,55.60
2018-08-10T00:03:45.638Z,53.89
2018-08-10T00:06:15.045Z,54.05
2018-08-10T00:08:44.566Z,54.85
2018-08-10T00:11:13.912Z,54.88
2018-08-10T00:13:43.237Z,55.56
2018-08-10T00:16:12.694Z,54.91
2018-08-10T00:18:41.953Z,56.12
2018-08-10T00:21:11.447Z,55.99
2018-08-10T00:23:40.715Z,55.94
2018-08-10T00:26:09.890Z,55.51
2018-08-10T00:28:39.156Z,56.69
2018-08-10T00:31:08.592Z,56.04
2018-08-10T00:33:38.754Z,55.89
2018-08-10T00:36:08.034Z,55.22
2018-08-10T00:38:37.229Z,55.49
2018-08-10T00:41:06.721Z,54.24
2018-08-10T00:43:35.988Z,54.84
2018-08-10T00:46:05.324Z,55.14
2018-08-10T00:48:34.581Z,55.00
2018-08-10T00:51:03.790Z,54.42
2018-08-10T00:53:33.048Z,54.01
2018-08-10T00:56:02.336Z,53.83
2018-08-10T00:58:31.446Z,53.93
2018-08-10T01:01:00.793Z,54.52
2018-08-10T01:03:30.057Z,53.39
2018-08-10T01:05:59.279Z,53.94
2018-08-10T01:08:28.570Z,53.52
2018-08-10T01:10:57.909Z,54.60
2018-08-10T01:13:27.267Z,54.38
2018-08-10T01:15:56.633Z,54.99
2018-08-10T01:18:25.866Z,53.59
2018-08-10T01:20:55.192Z,54.81
2018-08-10T01:23:25.609Z,54.57
2018-08-10T01:25:54.801Z,54.53
2018-08-10T01:28:24.128Z,54.61
2018-08-10T01:30:53.354Z,55.42
2018-08-10T01:33:22.592Z,55.62
2018-08-10T01:35:51.891Z,56.67
2018-08-10T01:38:21.149Z,57.28
2018-08-10T01:40:50.394Z,57.37
2018-08-10T01:43:19.814Z,57.35
2018-08-10T01:45:49.487Z,56.90
2018-08-10T01:48:18.845Z,56.62
2018-08-10T01:50:47.997Z,58.06
2018-08-10T01:53:17.330Z,58.57
2018-08-10T01:55:46.685Z,57.66
2018-08-10T01:58:15.926Z,56.60
2018-08-10T02:00:45.073Z,56.82
2018-08-10T02:03:14.408Z,58.05
2018-08-10T02:05:43.758Z,57.98
2018-08-10T02:08:12.988Z,57.62
2018-08-10T02:10:42.238Z,57.92
2018-08-10T02:13:11.633Z,57.35
2018-08-10T02:15:40.981Z,57.79
2018-08-10T02:18:10.266Z,58.16
2018-08-10T02:20:39.405Z,58.43
2018-08-10T02:23:08.878Z,58.20
2018-08-10T02:25:38.129Z,58.26
2018-08-10T02:28:07.303Z,58.36
2018-08-10T02:30:36.626Z,57.83
2018-08-10T02:33:05.745Z,58.08
2018-08-10T02:35:35.121Z,57.87
2018-08-10T02:38:04.261Z,58.35
2018-08-10T02:40:33.343Z,55.06
2018-08-10T02:43:02.509Z,54.75
2018-08-10T02:46:10.181Z,54.79
2018-08-10T02:48:39.467Z,54.55
2018-08-10T02:51:08.782Z,53.88
2018-08-10T02:53:38.095Z,53.29
2018-08-10T02:56:07.486Z,54.23
2018-08-10T02:58:36.743Z,53.17
2018-08-10T03:01:06.150Z,52.63
2018-08-10T03:03:35.546Z,51.82
2018-08-10T03:06:05.223Z,52.98
2018-08-10T03:08:34.600Z,53.34
2018-08-10T03:11:03.842Z,52.80
2018-08-10T03:13:33.073Z,53.48
2018-08-10T03:16:02.413Z,53.51
2018-08-10T03:18:31.699Z,53.65
2018-08-10T03:21:01.126Z,53.44
2018-08-10T03:23:30.406Z,53.71
2018-08-10T03:25:59.777Z,53.57
2018-08-10T03:28:29.151Z,53.81
2018-08-10T03:30:58.422Z,54.48
2018-08-10T03:33:27.799Z,54.30
2018-08-10T03:35:57.337Z,54.96
2018-08-10T03:38:26.811Z,55.38
2018-08-10T03:40:56.164Z,55.44
2018-08-10T03:43:25.538Z,55.51
2018-08-10T03:45:56.853Z,55.90
2018-08-10T03:48:32.612Z,55.48
2018-08-10T03:51:06.172Z,55.31
2018-08-10T03:53:37.438Z,55.24
2018-08-10T03:56:08.642Z,55.78
2018-08-10T03:58:38.302Z,55.98
2018-08-10T04:01:07.821Z,56.15
2018-08-10T04:03:37.254Z,56.47
2018-08-10T04:06:06.726Z,56.35
2018-08-10T04:08:36.085Z,56.58
2018-08-10T04:11:05.635Z,56.31
2018-08-10T04:13:34.941Z,56.29
2018-08-10T04:16:04.369Z,56.32
2018-08-10T04:18:33.946Z,56.46
2018-08-10T04:21:03.373Z,56.56
2018-08-10T04:23:32.646Z,55.23
2018-08-10T04:26:02.373Z,55.76
2018-08-10T04:28:31.679Z,55.97
2018-08-10T04:31:01.063Z,56.09
2018-08-10T04:33:30.517Z,56.27
2018-08-10T04:35:59.811Z,55.74
2018-08-10T04:38:29.150Z,55.92
2018-08-10T04:40:58.446Z,56.29
2018-08-10T04:43:27.661Z,56.37
2018-08-10T04:45:56.930Z,56.83
2018-08-10T04:48:26.241Z,57.02
2018-08-10T04:50:55.489Z,57.28
2018-08-10T04:53:24.877Z,57.34
2018-08-10T04:55:57.141Z,57.38
2018-08-10T04:58:26.450Z,57.40
2018-08-10T05:00:55.664Z,56.98
2018-08-10T05:03:25.028Z,57.30
2018-08-10T05:05:54.297Z,57.49
2018-08-10T05:08:23.472Z,57.24
2018-08-10T05:10:52.977Z,56.61
2018-08-10T05:13:22.286Z,56.96
2018-08-10T05:15:52.713Z,56.98
2018-08-10T05:18:21.830Z,56.51
2018-08-10T05:20:52.145Z,56.42
2018-08-10T05:23:21.489Z,55.23
2018-08-10T05:25:50.767Z,55.21
2018-08-10T05:28:20.061Z,54.94
2018-08-10T05:30:49.495Z,54.62
2018-08-10T05:33:18.813Z,54.78
2018-08-10T05:35:47.900Z,53.95
2018-08-10T05:38:17.022Z,53.83
2018-08-10T05:40:46.308Z,53.68
2018-08-10T05:43:15.740Z,53.31
2018-08-10T05:45:45.002Z,52.80
2018-08-10T05:48:14.145Z,52.51
2018-08-10T05:50:43.366Z,53.26
2018-08-10T05:53:12.628Z,53.50
2018-08-10T05:55:41.861Z,53.37
2018-08-10T05:58:11.125Z,52.83
2018-08-10T06:00:40.333Z,53.41
2018-08-10T06:03:09.517Z,53.58
2018-08-10T06:05:38.756Z,53.39
2018-08-10T06:08:08.026Z,53.73
2018-08-10T06:10:37.162Z,53.75
2018-08-10T06:13:06.755Z,53.12
2018-08-10T06:15:36.090Z,53.13
2018-08-10T06:18:05.441Z,52.83
2018-08-10T06:20:34.665Z,53.09
2018-08-10T06:23:04.034Z,52.62
2018-08-10T06:25:33.182Z,51.88
2018-08-10T06:28:02.265Z,51.24
2018-08-10T06:30:31.454Z,51.23
2018-08-10T06:33:00.605Z,51.86
2018-08-10T06:35:29.893Z,50.80
2018-08-10T06:37:58.967Z,50.04
2018-08-10T06:40:28.393Z,50.30
2018-08-10T06:42:57.544Z,49.44
2018-08-10T06:45:26.828Z,48.43
2018-08-10T06:47:56.046Z,48.83
2018-08-10T06:50:25.204Z,48.98
2018-08-10T06:52:54.654Z,48.81
2018-08-10T06:55:23.773Z,47.73
2018-08-10T06:57:53.166Z,47.29
2018-08-10T07:00:22.231Z,47.35
2018-08-10T07:02:51.493Z,46.24
2018-08-10T07:05:20.737Z,46.63
2018-08-10T07:07:49.997Z,47.07
2018-08-10T07:10:19.266Z,47.27
2018-08-10T07:12:48.867Z,48.50
2018-08-10T07:15:19.493Z,48.51
2018-08-10T07:17:49.104Z,49.32
2018-08-10T07:20:18.285Z,48.93
2018-08-10T07:22:47.483Z,48.42
2018-08-10T07:25:16.565Z,48.11
2018-08-10T07:27:45.932Z,48.06
2018-08-10T07:30:15.303Z,47.80
2018-08-10T07:32:44.337Z,46.53
2018-08-10T07:35:13.694Z,46.93
2018-08-10T07:37:42.849Z,46.93
2018-08-10T07:40:12.058Z,46.39
2018-08-10T07:42:41.312Z,46.56
2018-08-10T07:45:10.590Z,46.44
2018-08-10T07:47:39.857Z,47.12
2018-08-10T07:50:10.134Z,46.01
2018-08-10T07:52:39.673Z,46.66
2018-08-10T07:55:09.100Z,45.67
2018-08-10T07:57:38.541Z,46.04
2018-08-10T08:00:08.229Z,46.72
2018-08-10T08:02:38.224Z,46.76
2018-08-10T08:05:07.797Z,46.75
2018-08-10T08:07:37.021Z,46.57
2018-08-10T08:10:06.605Z,46.34
2018-08-10T08:12:35.853Z,46.11
2018-08-10T08:15:05.692Z,46.89
2018-08-10T08:17:35.123Z,45.17
2018-08-10T08:20:05.054Z,46.05
2018-08-10T08:22:34.482Z,45.55
2018-08-10T08:25:03.916Z,44.51
2018-08-10T08:27:33.441Z,44.27
2018-08-10T08:30:02.792Z,43.71
2018-08-10T08:32:32.106Z,42.73
2018-08-10T08:35:01.684Z,42.84
2018-08-10T08:37:30.906Z,42.98
2018-08-10T08:40:14.566Z,42.34
2018-08-10T08:42:45.211Z,42.13
2018-08-10T08:45:58.788Z,41.66
2018-08-10T08:48:29.170Z,40.10
2018-08-10T08:50:59.946Z,40.19
2018-08-10T08:53:29.283Z,38.89
2018-08-10T08:56:01.109Z,38.19
2018-08-10T08:58:30.941Z,37.90
2018-08-10T09:01:00.376Z,38.65
2018-08-10T09:03:41.350Z,37.03
2018-08-10T09:06:11.095Z,37.78
2018-08-10T09:08:50.602Z,37.07
2018-08-10T09:11:19.894Z,36.93
2018-08-10T09:14:57.072Z,37.05
2018-08-10T09:17:26.466Z,37.46
2018-08-10T09:19:55.890Z,35.88
2018-08-10T09:22:25.168Z,35.00
2018-08-10T09:24:55.373Z,35.34
2018-08-10T09:27:24.990Z,36.45
2018-08-10T09:29:55.001Z,35.43
2018-08-10T09:32:24.252Z,34.38
2018-08-10T09:34:53.613Z,34.78
2018-08-10T09:37:22.784Z,33.96
2018-08-10T09:39:52.041Z,33.82
2018-08-10T09:42:21.539Z,35.48
2018-08-10T09:44:50.980Z,36.02
2018-08-10T09:47:20.445Z,36.06
2018-08-10T09:49:50.637Z,35.47
2018-08-10T09:52:26.033Z,36.00
2018-08-10T09:55:43.008Z,36.58
2018-08-10T09:58:19.161Z,35.63
2018-08-10T10:00:54.083Z,35.15
2018-08-10T10:03:25.506Z,34.44
2018-08-10T10:05:58.387Z,33.88
2018-08-10T10:08:27.654Z,33.36
2018-08-10T10:10:57.814Z,33.74
2018-08-10T10:13:28.049Z,33.12
2018-08-10T10:15:57.364Z,33.01
2018-08-10T10:18:26.678Z,32.03
2018-08-10T10:20:55.935Z,33.03
2018-08-10T10:23:25.249Z,30.18
2018-08-10T10:25:54.557Z,31.31
2018-08-10T10:28:23.957Z,31.91
2018-08-10T10:30:53.390Z,29.61
2018-08-10T10:33:22.727Z,30.21
2018-08-10T10:35:51.929Z,31.21
2018-08-10T10:38:21.061Z,31.30
2018-08-10T10:40:50.238Z,32.23
2018-08-10T10:43:19.516Z,30.66
2018-08-10T10:45:49.741Z,29.92
2018-08-10T10:48:18.989Z,30.09
2018-08-10T10:50:48.300Z,31.01
2018-08-10T10:53:17.690Z,30.66
2018-08-10T10:55:46.949Z,31.01
2018-08-10T10:58:16.282Z,31.22
2018-08-10T11:00:46.450Z,30.53
2018-08-10T11:03:15.842Z,29.52
2018-08-10T11:05:44.957Z,31.02
2018-08-10T11:08:14.413Z,31.37
2018-08-10T11:10:43.884Z,30.10
2018-08-10T11:13:13.000Z,30.06
2018-08-10T11:15:42.141Z,29.70
2018-08-10T11:18:11.390Z,29.95
2018-08-10T11:20:40.773Z,29.82
2018-08-10T11:23:09.868Z,28.85
2018-08-10T11:25:39.221Z,28.92
2018-08-10T11:28:08.491Z,29.13
2018-08-10T11:30:37.739Z,28.12
2018-08-10T11:33:08.091Z,29.09
2018-08-10T11:35:37.371Z,29.57
2018-08-10T11:38:06.909Z,28.26
2018-08-10T11:40:37.203Z,28.50
2018-08-10T11:43:06.540Z,28.64
2018-08-10T11:45:35.799Z,28.90
2018-08-10T11:48:05.200Z,28.26
2018-08-10T11:50:34.721Z,27.88
2018-08-10T11:53:03.933Z,28.83
2018-08-10T11:55:33.313Z,27.86
2018-08-10T11:58:02.742Z,27.98
2018-08-10T12:00:32.009Z,26.93
2018-08-10T12:03:01.311Z,28.30
2018-08-10T12:05:30.498Z,29.49
2018-08-10T12:07:59.908Z,30.57
2018-08-10T12:10:29.288Z,30.22
2018-08-10T12:12:58.633Z,30.20
2018-08-10T12:15:28.077Z,29.68
2018-08-10T12:17:57.418Z,29.95
2018-08-10T12:20:26.781Z,29.23
2018-08-10T12:22:56.037Z,29.59
2018-08-10T12:25:25.339Z,29.13
2018-08-10T12:27:54.536Z,28.05
2018-08-10T12:30:23.969Z,28.25
2018-08-10T12:32:53.145Z,27.28
2018-08-10T12:35:22.540Z,25.73
2018-08-10T12:37:51.959Z,27.28
2018-08-10T12:40:21.149Z,27.74
2018-08-10T12:42:50.574Z,27.10
2018-08-10T12:45:19.864Z,26.08
2018-08-10T12:47:49.130Z,25.25
2018-08-10T12:50:18.494Z,26.29
2018-08-10T12:52:47.685Z,26.27
2018-08-10T12:55:16.882Z,25.67
2018-08-10T12:57:46.017Z,25.57
2018-08-10T13:00:15.310Z,25.30
2018-08-10T13:02:44.645Z,25.03
2018-08-10T13:05:13.988Z,25.40
2018-08-10T13:07:43.297Z,27.18
2018-08-10T13:10:13.191Z,27.35
2018-08-10T13:12:42.482Z,26.99
2018-08-10T13:15:13.110Z,28.02
2018-08-10T13:17:42.266Z,28.71
2018-08-10T13:20:14.168Z,29.66
2018-08-10T13:22:43.635Z,27.88
2018-08-10T13:25:12.953Z,27.75
2018-08-10T13:27:42.220Z,27.23
2018-08-10T13:30:12.558Z,26.90
2018-08-10T13:32:41.967Z,26.40
2018-08-10T13:35:11.326Z,26.50
2018-08-10T13:37:40.616Z,25.51
2018-08-10T13:40:11.141Z,26.19
2018-08-10T13:42:40.386Z,26.64
2018-08-10T13:45:11.449Z,25.76
2018-08-10T13:47:40.707Z,27.43
2018-08-10T13:50:14.264Z,27.72
2018-08-10T13:52:43.519Z,27.58
2018-08-10T13:55:18.617Z,25.65
2018-08-10T13:57:48.797Z,26.58
2018-08-10T14:00:20.050Z,24.76
2018-08-10T14:02:51.376Z,24.94
2018-08-10T14:05:21.420Z,24.55
2018-08-10T14:07:51.358Z,25.23
2018-08-10T14:10:20.739Z,25.05
2018-08-10T14:12:50.020Z,26.13
2018-08-10T14:15:19.426Z,25.35
2018-08-10T14:17:49.295Z,26.55
2018-08-10T14:20:18.633Z,26.86
2018-08-10T14:22:47.822Z,26.99
2018-08-10T14:25:17.117Z,27.24
2018-08-10T14:27:47.471Z,26.33
2018-08-10T14:30:17.270Z,27.00
2018-08-10T14:32:46.506Z,26.80
2018-08-10T14:35:15.791Z,26.34
2018-08-10T14:37:45.006Z,26.45
2018-08-10T14:40:14.693Z,26.06
2018-08-10T14:42:43.909Z,26.17
2018-08-10T14:45:14.760Z,26.96
2018-08-10T14:47:44.103Z,26.90
2018-08-10T14:50:14.552Z,26.65
2018-08-10T14:52:43.681Z,27.57
2018-08-10T14:55:14.659Z,27.02
2018-08-10T14:57:43.804Z,27.11
2018-08-10T15:00:17.017Z,28.08
2018-08-10T15:02:46.668Z,27.37
2018-08-10T15:05:16.068Z,27.63
2018-08-10T15:07:45.689Z,27.91
2018-08-10T15:10:16.180Z,27.48
2018-08-10T15:12:46.669Z,28.10
2018-08-10T15:15:18.081Z,27.97
2018-08-10T15:17:47.811Z,28.54
2018-08-10T15:20:18.513Z,29.32
2018-08-10T15:22:48.393Z,29.88
2018-08-10T15:25:17.592Z,29.81
2018-08-10T15:27:47.021Z,30.31
2018-08-10T15:30:18.173Z,30.17
2018-08-10T15:32:47.535Z,30.00
2018-08-10T15:35:17.504Z,29.21
2018-08-10T15:37:47.025Z,28.07
2018-08-10T15:40:18.074Z,28.55
2018-08-10T15:42:47.317Z,29.18
2018-08-10T15:45:17.687Z,29.03
2018-08-10T15:47:47.079Z,28.47
2018-08-10T15:50:16.457Z,28.44
2018-08-10T15:52:46.425Z,28.62
2018-08-10T15:55:15.849Z,28.90
2018-08-10T15:57:45.310Z,29.40
2018-08-10T16:00:20.189Z,29.16
2018-08-10T16:02:49.670Z,30.37
2018-08-10T16:05:18.995Z,29.74
2018-08-10T16:07:48.185Z,30.70
2018-08-10T16:10:17.530Z,30.39
2018-08-10T16:12:46.964Z,30.43
2018-08-10T16:15:17.717Z,31.06
2018-08-10T16:17:47.215Z,31.11
2018-08-10T16:20:19.977Z,30.97
2018-08-10T16:22:50.790Z,31.17
2018-08-10T16:25:20.203Z,30.97
2018-08-10T16:27:50.587Z,30.16
2018-08-10T16:30:19.890Z,29.89
2018-08-10T16:32:53.481Z,29.72
2018-08-10T16:35:31.590Z,29.02
2018-08-10T16:38:00.863Z,28.27
2018-08-10T16:40:32.033Z,27.86
2018-08-10T16:43:01.314Z,28.31
2018-08-10T16:45:30.629Z,28.16
2018-08-10T16:47:59.835Z,28.12
2018-08-10T16:50:29.222Z,27.52
2018-08-10T16:52:58.643Z,28.41
2018-08-10T16:55:27.769Z,27.63
2018-08-10T16:57:57.067Z,28.61
2018-08-10T17:00:26.330Z,28.06
2018-08-10T17:02:55.601Z,26.82
2018-08-10T17:05:24.890Z,27.10
2018-08-10T17:07:54.012Z,27.03
2018-08-10T17:10:23.205Z,27.19
2018-08-10T17:12:52.439Z,27.85
2018-08-10T17:15:21.649Z,27.53
2018-08-10T17:17:51.027Z,28.65
2018-08-10T17:20:20.221Z,28.47
2018-08-10T17:22:49.535Z,28.83
2018-08-10T17:25:20.331Z,29.19
2018-08-10T17:27:49.596Z,29.53
2018-08-10T17:30:20.027Z,29.68
2018-08-10T17:32:49.556Z,29.85
2018-08-10T17:35:18.877Z,29.64
2018-08-10T17:37:48.574Z,30.00
2018-08-10T17:40:18.024Z,29.84
2018-08-10T17:42:47.294Z,29.20
2018-08-10T17:45:18.635Z,29.94
2018-08-10T17:47:48.482Z,29.55
2018-08-10T17:50:21.129Z,29.20
2018-08-10T17:52:52.675Z,29.52
2018-08-10T17:55:22.585Z,29.02
2018-08-10T17:57:51.906Z,29.96
2018-08-10T18:00:22.860Z,30.27
2018-08-10T18:02:52.154Z,29.85
2018-08-10T18:05:21.438Z,30.50
2018-08-10T18:07:50.641Z,30.09
2018-08-10T18:10:20.545Z,30.29
2018-08-10T18:12:51.057Z,31.50
2018-08-10T18:15:21.008Z,32.25
2018-08-10T18:17:50.589Z,31.52
2018-08-10T18:20:22.023Z,31.72
2018-08-10T18:22:52.512Z,32.07
2018-08-10T18:25:22.701Z,32.20
2018-08-10T18:27:52.023Z,32.71
2018-08-10T18:30:23.603Z,32.78
2018-08-10T18:32:53.110Z,32.48
2018-08-10T18:35:22.353Z,32.87
2018-08-10T18:37:52.053Z,33.74
2018-08-10T18:40:21.565Z,33.19
2018-08-10T18:42:51.177Z,32.99
2018-08-10T18:45:21.688Z,33.14
2018-08-10T18:47:50.964Z,33.45
2018-08-10T18:50:20.729Z,33.81
2018-08-10T18:52:49.956Z,33.53
2018-08-10T18:55:20.538Z,33.52
2018-08-10T18:57:50.174Z,33.91
2018-08-10T19:00:22.202Z,34.50
2018-08-10T19:02:51.418Z,34.89
2018-08-10T19:05:20.671Z,35.19
2018-08-10T19:07:50.206Z,35.60
2018-08-10T19:12:50.365Z,36.36
2018-08-10T19:15:19.982Z,36.29
2018-08-10T19:17:49.381Z,36.68
2018-08-10T19:20:18.749Z,37.13
2018-08-10T19:22:48.877Z,37.94
2018-08-10T19:25:18.389Z,38.45
2018-08-10T19:27:47.697Z,38.65
2018-08-10T19:30:19.154Z,39.24
2018-08-10T19:32:48.837Z,39.72
2018-08-10T19:35:18.642Z,40.05
2018-08-10T19:37:47.784Z,40.24
2018-08-10T19:40:18.508Z,40.18
2018-08-10T19:42:47.713Z,40.40
2018-08-10T19:45:17.529Z,40.50
2018-08-10T19:47:47.098Z,40.63
2018-08-10T19:50:17.461Z,41.74
2018-08-10T19:52:46.821Z,42.33
2018-08-10T19:55:16.209Z,41.81
2018-08-10T19:57:45.647Z,41.47
2018-08-10T20:00:16.836Z,41.79
2018-08-10T20:02:50.341Z,42.24
2018-08-10T20:05:19.658Z,42.81
2018-08-10T20:07:48.948Z,43.66
2018-08-10T20:10:18.615Z,43.88
2018-08-10T20:12:48.098Z,43.65
2018-08-10T20:15:18.720Z,43.28
2018-08-10T20:17:48.018Z,43.18
2018-08-10T20:20:18.633Z,44.10
2018-08-10T20:22:48.114Z,43.30
2018-08-10T20:25:17.666Z,44.23
2018-08-10T20:27:47.133Z,43.99
2018-08-10T20:30:18.000Z,44.37
2018-08-10T20:32:47.690Z,45.23
2018-08-10T20:35:18.378Z,45.11
2018-08-10T20:37:48.268Z,44.43
2018-08-10T20:40:19.291Z,44.40
2018-08-10T20:42:51.850Z,44.07
2018-08-10T20:45:21.468Z,43.29
2018-08-10T20:47:56.482Z,43.20
2018-08-10T20:50:27.521Z,43.74
2018-08-10T20:52:56.879Z,44.95
2018-08-10T20:55:26.218Z,45.17
2018-08-10T20:57:55.546Z,45.37
2018-08-10T21:00:25.020Z,45.38
2018-08-10T21:02:55.623Z,45.28
2018-08-10T21:05:25.019Z,44.72
2018-08-10T21:07:54.581Z,44.65
2018-08-10T21:10:23.989Z,45.12
2018-08-10T21:12:53.350Z,46.01
2018-08-10T21:15:22.758Z,46.57
2018-08-10T21:17:52.050Z,46.29
2018-08-10T21:20:21.448Z,45.83
2018-08-10T21:22:50.481Z,46.99
2018-08-10T21:25:19.841Z,46.96
2018-08-10T21:27:49.163Z,47.30
2018-08-10T21:30:19.816Z,47.01
2018-08-10T21:32:49.530Z,47.63
2018-08-10T21:35:18.735Z,47.68
2018-08-10T21:37:47.990Z,48.10
2018-08-10T21:40:17.206Z,48.67
2018-08-10T21:42:48.567Z,48.59
2018-08-10T21:45:18.033Z,48.55
2018-08-10T21:47:47.539Z,48.63
2018-08-10T21:50:16.874Z,48.67
2018-08-10T21:52:46.177Z,48.07
2018-08-10T21:55:15.510Z,48.39
2018-08-10T21:57:44.779Z,48.73
2018-08-10T22:00:25.504Z,49.15
2018-08-10T22:02:54.827Z,49.17
2018-08-10T22:05:24.162Z,49.13
2018-08-10T22:07:55.349Z,48.34
2018-08-10T22:10:24.927Z,49.09
2018-08-10T22:12:54.050Z,48.59
2018-08-10T22:15:28.540Z,48.47
2018-08-10T22:18:02.980Z,49.67
2018-08-10T22:20:32.358Z,49.92
2018-08-10T22:23:01.725Z,50.86
2018-08-10T22:25:31.303Z,50.24
2018-08-10T22:28:00.750Z,50.26
2018-08-10T22:30:30.042Z,49.20
2018-08-10T22:32:59.281Z,48.58
2018-08-10T22:35:28.431Z,48.59
2018-08-10T22:37:57.729Z,48.45
2018-08-10T22:40:27.164Z,48.86
2018-08-10T22:42:56.314Z,48.55
2018-08-10T22:45:26.506Z,48.80
2018-08-10T22:47:55.646Z,49.08
2018-08-10T22:50:25.333Z,49.41
2018-08-10T22:52:54.633Z,50.02
2018-08-10T22:55:23.705Z,49.96
2018-08-10T22:57:52.905Z,49.10
2018-08-10T23:00:28.349Z,49.67
2018-08-10T23:02:57.442Z,49.93
2018-08-10T23:05:26.768Z,50.30
2018-08-10T23:07:57.009Z,50.14
2018-08-10T23:10:26.270Z,50.48
2018-08-10T23:12:55.861Z,50.15
2018-08-10T23:15:25.119Z,50.93
2018-08-10T23:17:54.589Z,50.45
2018-08-10T23:20:23.732Z,51.40
2018-08-10T23:22:53.117Z,51.42
2018-08-10T23:25:22.586Z,50.37
2018-08-10T23:27:51.828Z,50.98
2018-08-10T23:30:21.207Z,50.51
2018-08-10T23:32:50.420Z,50.79
2018-08-10T23:35:19.687Z,50.99
2018-08-10T23:37:48.925Z,51.16
2018-08-10T23:40:18.122Z,51.46
2018-08-10T23:42:47.410Z,51.12
2018-08-10T23:45:16.474Z,51.76
2018-08-10T23:47:45.650Z,51.99
2018-08-10T23:50:17.090Z,51.44
2018-08-10T23:52:46.581Z,51.52
2018-08-10T23:55:17.602Z,51.18
2018-08-10T23:57:46.789Z,51.42
